ジャカルタ の空港の天気 - METARとTAF

スカルノハッタ国際空港 ( WIII / CGK ) - インドネシア バンテン州、Cengkareng ( ジャカルタ近郊)
飛行場実況気象(Metar)
観測時間05/29 22:30 WIB (05/29 15:30 UTC)
風向・風速南西 2m/s
視程6000m
天気現象
少しの雲 雲底高度 610m
気温26℃
湿度84%
気圧1012hPa
METARWIII 291530Z 23004KT 6000 FEW020 26/23 Q1012 NOSIG
過去の天気等 Google飛行場航空写真 Wunderground天気予報

過去48時間のMETAR

飛行場予報(TAF)
発表時間: 5/29 18:00 WIB (5/29 11:00 UTC)
予報対象時間: 29日19時 WIB ~ 31日1時 WIB
風向・風速東南東 5m/s
視程7000m
全天の4割程度の雲 雲底高度 610m
29日21時 WIB ~ 29日23時 WIB に徐々に
風向・風速南西 3m/s
30日0時 WIB ~ 30日3時 WIB に一時的に
天気現象弱い雷雨
少しの積乱雲 雲底高度 550m
TAF WIII 291100Z 2912/3018 11010KT 7000 SCT020
BECMG 2914/2916 23005KT
TEMPO 2917/2920 -TSRA FEW018CB